createdAt,value
2019-02-23T00:01:03.009Z,95182.85
2019-02-23T00:03:29.791Z,95197.27
2019-02-23T00:05:56.487Z,95202.48
2019-02-23T00:08:23.193Z,95213.11
2019-02-23T00:10:49.953Z,95221.11
2019-02-23T00:13:16.618Z,95236.27
2019-02-23T00:15:43.300Z,95247.90
2019-02-23T00:18:12.540Z,95257.54
2019-02-23T00:20:36.644Z,95269.78
2019-02-23T00:23:03.331Z,95279.55
2019-02-23T00:25:29.984Z,95291.10
2019-02-23T00:27:56.648Z,95314.59
2019-02-23T00:30:23.315Z,95324.52
2019-02-23T00:32:49.997Z,95339.42
2019-02-23T00:35:16.662Z,95345.43
2019-02-23T00:37:43.332Z,95353.86
2019-02-23T00:40:10.136Z,95364.61
2019-02-23T00:42:36.812Z,95378.07
2019-02-23T00:45:03.496Z,95385.27
2019-02-23T00:47:30.157Z,95389.92
2019-02-23T00:49:56.830Z,95398.16
2019-02-23T00:52:23.510Z,95407.48
2019-02-23T00:54:50.188Z,95412.80
2019-02-23T00:57:16.846Z,95424.17
2019-02-23T00:59:43.533Z,95433.39
2019-02-23T01:02:12.028Z,95436.24
2019-02-23T01:04:36.911Z,95443.86
2019-02-23T01:07:03.574Z,95445.41
2019-02-23T01:09:30.255Z,95453.01
2019-02-23T01:11:56.911Z,95464.36
2019-02-23T01:14:25.067Z,95468.08
2019-02-23T01:16:50.286Z,95470.62
2019-02-23T01:19:16.956Z,95480.25
2019-02-23T01:21:43.644Z,95484.67
2019-02-23T01:24:10.310Z,95490.08
2019-02-23T01:26:36.987Z,95490.02
2019-02-23T01:29:03.719Z,95493.67
2019-02-23T01:31:30.392Z,95488.52
2019-02-23T01:33:57.074Z,95500.47
2019-02-23T01:36:23.755Z,95498.34
2019-02-23T01:38:50.455Z,95507.70
2019-02-23T01:41:17.140Z,95508.07
2019-02-23T01:43:43.831Z,95512.24
2019-02-23T01:46:10.592Z,95518.81
2019-02-23T01:48:37.267Z,95519.32
2019-02-23T01:51:03.941Z,95530.21
2019-02-23T01:53:30.631Z,95529.17
2019-02-23T01:55:57.313Z,95530.44
2019-02-23T01:58:24.008Z,95535.63
2019-02-23T02:00:50.684Z,95532.59
2019-02-23T02:03:17.352Z,95541.70
2019-02-23T02:05:44.029Z,95551.76
2019-02-23T02:08:10.697Z,95549.07
2019-02-23T02:10:37.357Z,95551.95
2019-02-23T02:13:04.027Z,95566.31
2019-02-23T02:15:30.712Z,95567.92
2019-02-23T02:17:57.440Z,95573.34
2019-02-23T02:20:24.100Z,95578.52
2019-02-23T02:22:50.775Z,95583.44
2019-02-23T02:25:17.534Z,95596.80
2019-02-23T02:27:44.121Z,95601.48
2019-02-23T02:30:10.807Z,95602.74
2019-02-23T02:32:37.453Z,95606.39
2019-02-23T02:35:04.130Z,95617.89
2019-02-23T02:37:30.832Z,95631.54
2019-02-23T02:39:57.514Z,95633.92
2019-02-23T02:42:24.255Z,95634.03
2019-02-23T02:44:50.935Z,95636.32
2019-02-23T02:47:17.600Z,95634.80
2019-02-23T02:49:44.290Z,95643.38
2019-02-23T02:52:10.951Z,95658.80
2019-02-23T02:54:37.667Z,95659.81
2019-02-23T02:57:04.342Z,95665.51
2019-02-23T02:59:31.021Z,95670.06
2019-02-23T03:01:58.884Z,95677.24
2019-02-23T03:04:24.424Z,95690.40
2019-02-23T03:06:51.085Z,95695.31
2019-02-23T03:09:17.772Z,95700.38
2019-02-23T03:11:44.435Z,95703.20
2019-02-23T03:14:12.491Z,95703.25
2019-02-23T03:16:37.786Z,95710.95
2019-02-23T03:19:04.469Z,95707.67
2019-02-23T03:21:31.155Z,95712.83
2019-02-23T03:23:57.933Z,95721.91
2019-02-23T03:26:24.600Z,95725.82
2019-02-23T03:28:51.364Z,95720.64
2019-02-23T03:31:18.038Z,95710.17
2019-02-23T03:33:46.326Z,95713.70
2019-02-23T03:36:11.391Z,95720.65
2019-02-23T03:38:38.069Z,95724.05
2019-02-23T03:41:04.740Z,95728.20
2019-02-23T03:43:31.509Z,95735.28
2019-02-23T03:45:58.184Z,95742.75
2019-02-23T03:48:24.866Z,95743.86
2019-02-23T03:50:51.541Z,95750.30
2019-02-23T03:53:18.229Z,95755.24
2019-02-23T03:55:44.888Z,95753.47
2019-02-23T03:58:11.563Z,95763.58
2019-02-23T04:00:38.230Z,95757.64
2019-02-23T04:03:04.936Z,95768.75
2019-02-23T04:05:31.588Z,95769.14
2019-02-23T04:07:58.274Z,95776.07
2019-02-23T04:10:24.955Z,95780.52
2019-02-23T04:12:51.634Z,95776.59
2019-02-23T04:15:18.300Z,95777.09
2019-02-23T04:17:44.972Z,95775.71
2019-02-23T04:20:11.775Z,95786.70
2019-02-23T04:22:38.529Z,95796.92
2019-02-23T04:25:05.204Z,95802.88
2019-02-23T04:27:31.983Z,95807.17
2019-02-23T04:29:58.666Z,95814.53
2019-02-23T04:32:25.338Z,95825.62
2019-02-23T04:34:51.997Z,95832.82
2019-02-23T04:37:18.678Z,95841.94
2019-02-23T04:39:45.351Z,95844.58
2019-02-23T04:42:12.060Z,95849.75
2019-02-23T04:44:38.733Z,95854.44
2019-02-23T04:47:05.423Z,95860.13
2019-02-23T04:49:35.483Z,95858.34
2019-02-23T04:52:02.176Z,95849.25
2019-02-23T04:54:28.849Z,95848.48
2019-02-23T04:56:55.566Z,95858.10
2019-02-23T04:59:22.228Z,95858.61
2019-02-23T05:01:48.906Z,95866.19
2019-02-23T05:04:15.579Z,95872.00
2019-02-23T05:06:42.258Z,95881.97
2019-02-23T05:09:08.931Z,95882.98
2019-02-23T05:11:35.591Z,95885.13
2019-02-23T05:14:02.265Z,95879.58
2019-02-23T05:16:28.933Z,95888.29
2019-02-23T05:18:55.615Z,95891.94
2019-02-23T05:21:26.199Z,95903.20
2019-02-23T05:23:48.977Z,95912.30
2019-02-23T05:26:15.645Z,95908.37
2019-02-23T05:28:42.341Z,95919.88
2019-02-23T05:31:08.992Z,95925.55
2019-02-23T05:33:35.650Z,95936.09
2019-02-23T05:36:02.318Z,95948.69
2019-02-23T05:38:28.979Z,95951.23
2019-02-23T05:40:58.476Z,95957.72
2019-02-23T05:43:25.134Z,95966.95
2019-02-23T05:45:51.794Z,95979.22
2019-02-23T05:48:18.468Z,95984.91
2019-02-23T05:50:45.162Z,95991.97
2019-02-23T05:53:11.802Z,95987.06
2019-02-23T05:55:38.471Z,96000.97
2019-02-23T05:58:05.156Z,95996.17
2019-02-23T06:00:31.801Z,96008.05
2019-02-23T06:02:58.469Z,96005.41
2019-02-23T06:05:25.131Z,96004.16
2019-02-23T06:07:51.791Z,96013.13
2019-02-23T06:10:18.437Z,96017.67
2019-02-23T06:12:46.651Z,96025.77
2019-02-23T06:15:11.764Z,96037.52
2019-02-23T06:17:38.428Z,96032.61
2019-02-23T06:20:05.074Z,96043.08
2019-02-23T06:22:31.746Z,96051.06
2019-02-23T06:24:58.396Z,96062.30
2019-02-23T06:27:25.093Z,96053.70
2019-02-23T06:29:51.749Z,96072.55
2019-02-23T06:32:18.403Z,96073.41
2019-02-23T06:34:45.069Z,96079.31
2019-02-23T06:37:11.792Z,96078.09
2019-02-23T06:39:38.465Z,96088.99
2019-02-23T06:42:05.150Z,96091.71
2019-02-23T06:44:31.779Z,96095.03
2019-02-23T06:46:58.432Z,96096.03
2019-02-23T06:49:25.089Z,96110.36
2019-02-23T06:51:51.736Z,96122.53
2019-02-23T06:54:18.429Z,96125.69
2019-02-23T06:56:45.127Z,96123.30
2019-02-23T06:59:11.877Z,96128.20
2019-02-23T07:01:38.534Z,96125.94
2019-02-23T07:04:05.182Z,96120.00
2019-02-23T07:06:31.858Z,96126.22
2019-02-23T07:08:58.558Z,96127.66
2019-02-23T07:11:25.209Z,96131.26
2019-02-23T07:13:51.875Z,96139.27
2019-02-23T07:16:18.563Z,96129.30
2019-02-23T07:18:45.268Z,96131.23
2019-02-23T07:21:11.998Z,96126.57
2019-02-23T07:23:38.662Z,96128.65
2019-02-23T07:26:05.317Z,96123.66
2019-02-23T07:28:32.141Z,96128.45
2019-02-23T07:30:58.795Z,96137.47
2019-02-23T07:33:32.695Z,96149.75
2019-02-23T07:35:52.131Z,96156.47
2019-02-23T07:38:18.805Z,96160.78
2019-02-23T07:40:45.447Z,96156.52
2019-02-23T07:43:12.155Z,96169.80
2019-02-23T07:45:38.814Z,96182.99
2019-02-23T07:48:05.473Z,96190.47
2019-02-23T07:50:32.121Z,96194.78
2019-02-23T07:52:58.795Z,96195.31
2019-02-23T07:55:25.467Z,96209.75
2019-02-23T07:57:52.135Z,96200.02
2019-02-23T08:00:18.803Z,96201.46
2019-02-23T08:02:45.465Z,96207.92
2019-02-23T08:05:12.119Z,96215.94
2019-02-23T08:07:39.932Z,96218.11
2019-02-23T08:10:05.472Z,96213.72
2019-02-23T08:12:32.131Z,96225.95
2019-02-23T08:14:58.784Z,96230.25
2019-02-23T08:17:25.473Z,96231.33
2019-02-23T08:19:52.162Z,96232.00
2019-02-23T08:22:18.826Z,96231.52
2019-02-23T08:24:45.486Z,96226.34
2019-02-23T08:27:12.209Z,96233.64
2019-02-23T08:29:38.866Z,96241.88
2019-02-23T08:32:05.514Z,96251.72
2019-02-23T08:34:32.182Z,96256.99
2019-02-23T08:36:58.842Z,96263.66
2019-02-23T08:39:25.512Z,96269.33
2019-02-23T08:41:52.165Z,96282.08
2019-02-23T08:44:18.824Z,96280.44
2019-02-23T08:46:45.589Z,96287.39
2019-02-23T08:49:12.146Z,96285.33
2019-02-23T08:51:38.802Z,96282.94
2019-02-23T08:54:05.503Z,96286.23
2019-02-23T08:56:32.150Z,96286.23
2019-02-23T08:58:58.794Z,96296.73
2019-02-23T09:01:25.469Z,96289.27
2019-02-23T09:03:52.127Z,96290.80
2019-02-23T09:06:18.966Z,96297.36
2019-02-23T09:08:45.632Z,96294.83
2019-02-23T09:11:12.334Z,96294.34
2019-02-23T09:13:39.010Z,96301.92
2019-02-23T09:16:05.670Z,96308.74
2019-02-23T09:18:32.335Z,96310.42
2019-02-23T09:20:59.003Z,96305.10
2019-02-23T09:23:25.664Z,96303.62
2019-02-23T09:25:52.367Z,96327.16
2019-02-23T09:28:19.028Z,96330.67
2019-02-23T09:30:45.693Z,96327.66
2019-02-23T09:33:12.407Z,96328.69
2019-02-23T09:35:39.046Z,96330.98
2019-02-23T09:38:05.708Z,96332.44
2019-02-23T09:40:32.371Z,96340.61
2019-02-23T09:42:59.042Z,96335.21
2019-02-23T09:45:25.756Z,96341.94
2019-02-23T09:47:52.503Z,96342.84
2019-02-23T09:50:19.183Z,96346.30
2019-02-23T09:52:45.843Z,96344.16
2019-02-23T09:55:12.528Z,96343.39
2019-02-23T09:57:39.193Z,96343.30
2019-02-23T10:00:05.883Z,96338.52
2019-02-23T10:02:32.556Z,96347.76
2019-02-23T10:04:59.243Z,96348.88
2019-02-23T10:07:25.920Z,96349.01
2019-02-23T10:09:52.566Z,96338.34
2019-02-23T10:12:19.273Z,96342.96
2019-02-23T10:14:45.935Z,96344.76
2019-02-23T10:17:12.688Z,96341.19
2019-02-23T10:19:39.340Z,96347.68
2019-02-23T10:22:06.051Z,96347.28
2019-02-23T10:24:32.701Z,96342.51
2019-02-23T10:26:59.370Z,96350.01
2019-02-23T10:29:26.122Z,96352.42
2019-02-23T10:31:52.768Z,96361.82
2019-02-23T10:34:19.457Z,96351.08
2019-02-23T10:36:46.107Z,96345.67
2019-02-23T10:39:12.802Z,96347.59
2019-02-23T10:41:39.474Z,96351.09
2019-02-23T10:44:06.175Z,96347.54
2019-02-23T10:46:32.982Z,96350.08
2019-02-23T10:48:59.632Z,96344.99
2019-02-23T10:51:26.293Z,96347.29
2019-02-23T10:53:55.161Z,96351.94
2019-02-23T10:56:19.600Z,96346.86
2019-02-23T10:58:46.245Z,96346.46
2019-02-23T11:01:12.924Z,96349.45
2019-02-23T11:03:39.575Z,96352.75
2019-02-23T11:06:06.243Z,96357.86
2019-02-23T11:08:32.910Z,96352.91
2019-02-23T11:10:59.631Z,96356.27
2019-02-23T11:13:26.289Z,96352.26
2019-02-23T11:15:52.947Z,96357.83
2019-02-23T11:18:19.731Z,96355.95
2019-02-23T11:20:46.417Z,96357.12
2019-02-23T11:23:13.116Z,96357.13
2019-02-23T11:25:39.770Z,96361.05
2019-02-23T11:28:06.430Z,96354.33
2019-02-23T11:30:33.078Z,96361.92
2019-02-23T11:32:59.737Z,96363.45
2019-02-23T11:35:26.402Z,96367.72
2019-02-23T11:37:53.071Z,96370.49
2019-02-23T11:40:19.727Z,96365.17
2019-02-23T11:42:46.425Z,96357.83
2019-02-23T11:45:13.094Z,96364.53
2019-02-23T11:47:39.770Z,96368.79
2019-02-23T11:50:06.404Z,96365.89
2019-02-23T11:52:33.087Z,96367.34
2019-02-23T11:54:59.821Z,96361.48
2019-02-23T11:57:26.496Z,96370.70
2019-02-23T11:59:53.151Z,96374.31
2019-02-23T12:02:19.811Z,96368.64
2019-02-23T12:04:46.501Z,96375.38
2019-02-23T12:07:13.155Z,96375.04
2019-02-23T12:09:39.815Z,96374.80
2019-02-23T12:12:06.476Z,96373.90
2019-02-23T12:14:33.126Z,96378.85
2019-02-23T12:16:59.786Z,96372.42
2019-02-23T12:19:26.429Z,96377.46
2019-02-23T12:21:53.081Z,96376.97
2019-02-23T12:24:19.739Z,96383.50
2019-02-23T12:26:46.407Z,96379.70
2019-02-23T12:29:13.106Z,96378.83
2019-02-23T12:31:39.760Z,96384.65
2019-02-23T12:34:06.418Z,96383.66
2019-02-23T12:36:33.074Z,96386.18
2019-02-23T12:38:59.848Z,96385.44
2019-02-23T12:41:26.541Z,96382.97
2019-02-23T12:43:53.183Z,96386.20
2019-02-23T12:46:19.831Z,96383.22
2019-02-23T12:48:46.512Z,96384.29
2019-02-23T12:51:13.200Z,96385.72
2019-02-23T12:53:39.872Z,96387.02
2019-02-23T12:56:06.528Z,96389.56
2019-02-23T12:58:33.271Z,96395.66
2019-02-23T13:00:59.916Z,96398.70
2019-02-23T13:03:26.616Z,96397.41
2019-02-23T13:05:53.382Z,96397.24
2019-02-23T13:08:20.065Z,96403.95
2019-02-23T13:10:46.779Z,96405.34
2019-02-23T13:13:13.469Z,96401.16
2019-02-23T13:15:40.160Z,96404.39
2019-02-23T13:18:06.860Z,96403.20
2019-02-23T13:20:33.509Z,96398.02
2019-02-23T13:23:00.169Z,96408.28
2019-02-23T13:25:26.830Z,96403.27
2019-02-23T13:27:53.590Z,96400.91
2019-02-23T13:30:20.182Z,96399.09
2019-02-23T13:32:46.848Z,96401.31
2019-02-23T13:35:13.590Z,96404.28
2019-02-23T13:37:40.259Z,96403.53
2019-02-23T13:40:06.917Z,96415.42
2019-02-23T13:42:33.578Z,96415.97
2019-02-23T13:45:00.303Z,96406.61
2019-02-23T13:47:26.943Z,96414.86
2019-02-23T13:49:53.589Z,96421.30
2019-02-23T13:52:20.285Z,96417.41
2019-02-23T13:54:46.929Z,96412.20
2019-02-23T13:57:13.576Z,96417.22
2019-02-23T13:59:40.248Z,96415.52
2019-02-23T14:02:06.968Z,96421.20
2019-02-23T14:04:33.619Z,96417.88
2019-02-23T14:07:00.268Z,96417.55
2019-02-23T14:09:26.927Z,96419.31
2019-02-23T14:11:53.577Z,96414.34
2019-02-23T14:14:20.236Z,96420.72
2019-02-23T14:16:46.926Z,96420.73
2019-02-23T14:19:13.686Z,96420.78
2019-02-23T14:21:40.271Z,96431.53
2019-02-23T14:24:06.920Z,96432.46
2019-02-23T14:26:33.594Z,96432.95
2019-02-23T14:29:00.243Z,96435.36
2019-02-23T14:31:26.907Z,96436.13
2019-02-23T14:33:53.562Z,96430.39
2019-02-23T14:36:20.213Z,96433.45
2019-02-23T14:38:46.863Z,96438.52
2019-02-23T14:41:13.545Z,96434.09
2019-02-23T14:43:40.288Z,96440.44
2019-02-23T14:46:06.994Z,96442.70
2019-02-23T14:48:33.637Z,96440.92
2019-02-23T14:51:00.298Z,96445.22
2019-02-23T14:53:26.972Z,96440.24
2019-02-23T14:55:53.649Z,96440.47
2019-02-23T14:58:20.295Z,96451.20
2019-02-23T15:00:47.035Z,96447.08
2019-02-23T15:03:13.678Z,96445.52
2019-02-23T15:05:40.321Z,96452.80
2019-02-23T15:08:06.997Z,96458.47
2019-02-23T15:10:33.687Z,96453.53
2019-02-23T15:13:00.334Z,96456.33
2019-02-23T15:15:27.029Z,96462.80
2019-02-23T15:17:53.702Z,96475.45
2019-02-23T15:20:20.366Z,96483.44
2019-02-23T15:22:48.643Z,96485.18
2019-02-23T15:25:13.766Z,96493.04
2019-02-23T15:27:40.362Z,96492.52
2019-02-23T15:30:07.053Z,96496.95
2019-02-23T15:32:33.753Z,96505.30
2019-02-23T15:35:00.420Z,96505.13
2019-02-23T15:37:27.101Z,96508.30
2019-02-23T15:39:53.775Z,96515.69
2019-02-23T15:42:20.451Z,96521.26
2019-02-23T15:44:47.140Z,96526.35
2019-02-23T15:47:13.759Z,96530.76
2019-02-23T15:49:40.422Z,96531.94
2019-02-23T15:52:07.077Z,96529.06
2019-02-23T15:54:33.731Z,96529.56
2019-02-23T15:57:00.389Z,96530.36
2019-02-23T15:59:27.045Z,96532.79
2019-02-23T16:01:53.693Z,96539.76
2019-02-23T16:04:20.352Z,96537.22
2019-02-23T16:06:47.019Z,96543.16
2019-02-23T16:09:13.682Z,96544.46
2019-02-23T16:11:40.368Z,96541.20
2019-02-23T16:14:07.020Z,96551.70
2019-02-23T16:16:33.744Z,96557.91
2019-02-23T16:19:00.426Z,96571.03
2019-02-23T16:21:27.074Z,96568.14
2019-02-23T16:23:53.836Z,96567.63
2019-02-23T16:26:20.498Z,96578.98
2019-02-23T16:28:47.229Z,96584.52
2019-02-23T16:31:13.949Z,96583.54
2019-02-23T16:33:40.599Z,96589.16
2019-02-23T16:36:07.263Z,96583.83
2019-02-23T16:38:33.900Z,96594.95
2019-02-23T16:41:00.562Z,96593.61
2019-02-23T16:43:27.276Z,96596.86
2019-02-23T16:45:53.929Z,96601.79
2019-02-23T16:48:20.605Z,96598.41
2019-02-23T16:50:47.285Z,96604.38
2019-02-23T16:53:14.031Z,96610.63
2019-02-23T16:55:50.521Z,96611.96
2019-02-23T16:58:07.342Z,96614.66
2019-02-23T17:00:34.059Z,96611.64
2019-02-23T17:03:00.710Z,96619.20
2019-02-23T17:05:27.361Z,96612.73
2019-02-23T17:07:54.030Z,96621.21
2019-02-23T17:10:20.681Z,96629.49
2019-02-23T17:12:47.371Z,96631.12
2019-02-23T17:15:13.999Z,96628.72
2019-02-23T17:17:40.677Z,96630.26
2019-02-23T17:20:07.323Z,96620.86
2019-02-23T17:22:33.966Z,96622.88
2019-02-23T17:25:00.628Z,96627.72
2019-02-23T17:27:35.795Z,96633.63
2019-02-23T17:29:54.001Z,96633.13
2019-02-23T17:32:20.670Z,96632.86
2019-02-23T17:34:47.364Z,96633.51
2019-02-23T17:37:14.330Z,96631.88
2019-02-23T17:39:40.991Z,96626.80
2019-02-23T17:42:07.886Z,96627.22
2019-02-23T17:44:34.486Z,96630.94
2019-02-23T17:47:01.286Z,96637.84
2019-02-23T17:49:27.941Z,96629.31
2019-02-23T17:51:54.602Z,96638.50
2019-02-23T17:54:21.273Z,96635.52
2019-02-23T17:56:49.309Z,96638.06
2019-02-23T17:59:14.643Z,96634.56
2019-02-23T18:01:41.341Z,96640.66
2019-02-23T18:04:07.996Z,96643.78
2019-02-23T18:06:34.663Z,96639.47
2019-02-23T18:09:01.369Z,96637.84
2019-02-23T18:11:29.833Z,96648.07
2019-02-23T18:13:54.738Z,96643.10
2019-02-23T18:16:21.550Z,96642.63
2019-02-23T18:18:48.196Z,96647.03
2019-02-23T18:21:14.863Z,96648.97
2019-02-23T18:23:41.547Z,96648.02
2019-02-23T18:26:08.199Z,96641.45
2019-02-23T18:28:34.882Z,96644.62
2019-02-23T18:31:01.526Z,96646.63
2019-02-23T18:33:28.169Z,96647.28
2019-02-23T18:35:54.855Z,96642.91
2019-02-23T18:38:21.577Z,96648.80
2019-02-23T18:40:48.218Z,96651.73
2019-02-23T18:43:14.879Z,96650.23
2019-02-23T18:45:47.158Z,96652.58
2019-02-23T18:48:08.203Z,96659.44
2019-02-23T18:50:34.864Z,96662.95
2019-02-23T18:53:01.529Z,96664.49
2019-02-23T18:55:28.168Z,96662.95
2019-02-23T18:57:54.835Z,96662.48
2019-02-23T19:00:24.434Z,96664.26
2019-02-23T19:02:48.243Z,96667.12
2019-02-23T19:05:14.891Z,96674.21
2019-02-23T19:07:41.554Z,96668.58
2019-02-23T19:10:08.266Z,96665.92
2019-02-23T19:12:34.941Z,96679.95
2019-02-23T19:15:01.603Z,96690.59
2019-02-23T19:17:28.263Z,96687.91
2019-02-23T19:19:54.973Z,96688.14
2019-02-23T19:22:21.659Z,96693.03
2019-02-23T19:24:48.362Z,96695.34
2019-02-23T19:27:15.036Z,96693.03
2019-02-23T19:29:41.709Z,96696.39
2019-02-23T19:32:08.364Z,96690.17
2019-02-23T19:34:35.016Z,96692.65
2019-02-23T19:37:01.720Z,96689.10
2019-02-23T19:39:28.396Z,96690.88
2019-02-23T19:41:55.027Z,96674.60
2019-02-23T19:44:21.705Z,96690.64
2019-02-23T19:46:48.395Z,96688.25
2019-02-23T19:49:15.042Z,96688.40
2019-02-23T19:51:41.711Z,96690.73
2019-02-23T19:54:08.358Z,96688.02
2019-02-23T19:56:35.053Z,96690.37
2019-02-23T19:59:01.719Z,96680.27
2019-02-23T20:01:28.383Z,96683.94
2019-02-23T20:03:55.067Z,96688.09
2019-02-23T20:06:21.809Z,96684.52
2019-02-23T20:08:48.512Z,96680.23
2019-02-23T20:11:15.161Z,96678.74
2019-02-23T20:13:41.869Z,96686.98
2019-02-23T20:16:08.537Z,96685.21
2019-02-23T20:18:35.212Z,96681.75
2019-02-23T20:21:01.955Z,96688.30
2019-02-23T20:23:28.611Z,96686.91
2019-02-23T20:25:58.034Z,96687.06
2019-02-23T20:28:24.731Z,96687.80
2019-02-23T20:30:51.374Z,96693.73
2019-02-23T20:33:19.100Z,96696.78
2019-02-23T20:35:44.723Z,96691.23
2019-02-23T20:38:11.409Z,96694.78
2019-02-23T20:40:38.082Z,96697.94
2019-02-23T20:43:04.725Z,96699.21
2019-02-23T20:45:31.430Z,96698.83
2019-02-23T20:47:58.099Z,96698.09
2019-02-23T20:50:24.741Z,96694.43
2019-02-23T20:52:51.455Z,96693.42
2019-02-23T20:55:18.118Z,96691.42
2019-02-23T20:57:44.920Z,96693.05
2019-02-23T21:00:11.565Z,96689.69
2019-02-23T21:02:38.229Z,96690.95
2019-02-23T21:05:04.881Z,96683.33
2019-02-23T21:07:31.592Z,96682.86
2019-02-23T21:09:58.260Z,96690.42
2019-02-23T21:12:24.948Z,96686.78
2019-02-23T21:14:51.602Z,96682.89
2019-02-23T21:17:18.308Z,96683.75
2019-02-23T21:19:44.971Z,96683.87
2019-02-23T21:22:11.640Z,96672.42
2019-02-23T21:24:38.286Z,96677.69
2019-02-23T21:27:12.671Z,96681.00
2019-02-23T21:29:31.644Z,96676.73
2019-02-23T21:31:58.329Z,96672.06
2019-02-23T21:34:25.023Z,96671.45
2019-02-23T21:36:51.667Z,96662.63
2019-02-23T21:39:18.378Z,96668.67
2019-02-23T21:41:45.024Z,96667.20
2019-02-23T21:44:11.684Z,96667.09
2019-02-23T21:46:38.355Z,96671.91
2019-02-23T21:49:05.011Z,96669.13
2019-02-23T21:51:31.700Z,96667.17
2019-02-23T21:53:58.419Z,96668.67
2019-02-23T21:56:25.056Z,96670.26
2019-02-23T21:58:51.715Z,96668.75
2019-02-23T22:01:18.405Z,96662.27
2019-02-23T22:03:45.072Z,96668.06
2019-02-23T22:06:11.755Z,96663.58
2019-02-23T22:08:38.437Z,96659.66
2019-02-23T22:11:05.093Z,96662.77
2019-02-23T22:13:31.744Z,96662.70
2019-02-23T22:15:58.459Z,96663.39
2019-02-23T22:18:25.181Z,96664.52
2019-02-23T22:20:51.967Z,96661.73
2019-02-23T22:23:18.706Z,96659.73
2019-02-23T22:25:45.373Z,96660.73
2019-02-23T22:28:12.098Z,96654.45
2019-02-23T22:30:38.747Z,96667.20
2019-02-23T22:33:05.402Z,96671.22
2019-02-23T22:35:32.071Z,96667.25
2019-02-23T22:37:58.724Z,96659.50
2019-02-23T22:40:25.377Z,96662.04
2019-02-23T22:42:52.096Z,96660.50
2019-02-23T22:45:18.738Z,96673.61
2019-02-23T22:47:45.401Z,96663.66
2019-02-23T22:50:12.071Z,96665.39
2019-02-23T22:52:38.767Z,96664.59
2019-02-23T22:55:05.416Z,96663.28
2019-02-23T22:57:40.010Z,96661.19
2019-02-23T22:59:58.835Z,96660.50
2019-02-23T23:02:25.632Z,96659.81
2019-02-23T23:04:53.419Z,96663.72
2019-02-23T23:07:20.070Z,96661.79
2019-02-23T23:09:46.767Z,96661.60
2019-02-23T23:12:13.430Z,96658.95
2019-02-23T23:14:40.078Z,96657.03
2019-02-23T23:17:06.748Z,96660.47
2019-02-23T23:19:33.404Z,96655.06
2019-02-23T23:22:00.066Z,96657.61
2019-02-23T23:24:26.730Z,96653.72
2019-02-23T23:26:53.378Z,96656.65
2019-02-23T23:29:20.046Z,96656.31
2019-02-23T23:31:46.706Z,96656.92
2019-02-23T23:34:13.357Z,96659.16
2019-02-23T23:36:40.016Z,96661.20
2019-02-23T23:39:06.662Z,96663.36
2019-02-23T23:41:33.357Z,96662.28
2019-02-23T23:44:00.017Z,96665.21
2019-02-23T23:46:26.711Z,96662.55
2019-02-23T23:48:53.357Z,96667.08
2019-02-23T23:51:20.036Z,96666.84
2019-02-23T23:53:46.687Z,96671.53
2019-02-23T23:56:13.331Z,96670.77
2019-02-23T23:58:39.997Z,96677.37
